Time;durP1;ratioP1;P1;durP2;ratioP2;P2;SDS_P1;SDS_P2;PMS_P1;PMS_P2;Temp;Humidity;BMP_temperature;BMP_pressure;BME280_temperature;BME280_humidity;BME280_pressure;Samples;Min_cycle;Max_cycle;Signal;HPM_P1;HPM_P2
2021/09/10 00:01:58;;;;;;;1.40;1.30;;;17.10;98.00;;;;;;5112896;28;20490;-69
2021/09/10 00:04:25;;;;;;;2.50;1.90;;;17.20;98.00;;;;;;5111567;28;20614;-69
2021/09/10 00:06:52;;;;;;;2.30;1.57;;;17.20;98.00;;;;;;5112614;28;20559;-68
2021/09/10 00:09:19;;;;;;;2.33;1.57;;;17.30;98.00;;;;;;5112485;28;20459;-69
2021/09/10 00:11:47;;;;;;;2.53;1.43;;;17.30;98.00;;;;;;5112772;28;20513;-70
2021/09/10 00:14:14;;;;;;;2.43;2.27;;;17.30;98.00;;;;;;5112555;28;20537;-70
2021/09/10 00:16:41;;;;;;;5.70;2.27;;;17.30;98.00;;;;;;5112279;28;20454;-70
2021/09/10 00:19:10;;;;;;;2.37;1.70;;;17.10;98.00;;;;;;5112140;28;20493;-69
2021/09/10 00:21:37;;;;;;;1.70;1.50;;;17.00;98.00;;;;;;5112078;28;20443;-70
2021/09/10 00:24:04;;;;;;;1.63;1.40;;;16.90;98.00;;;;;;5111327;28;20462;-70
2021/09/10 00:26:31;;;;;;;2.07;1.60;;;16.90;98.00;;;;;;5112160;28;20530;-69
2021/09/10 00:28:58;;;;;;;2.30;1.60;;;17.00;98.00;;;;;;5112141;28;20547;-71
2021/09/10 00:31:25;;;;;;;3.20;1.83;;;17.00;98.00;;;;;;5112231;28;20482;-70
2021/09/10 00:33:52;;;;;;;1.97;1.87;;;17.10;98.00;;;;;;5112143;28;20563;-69
2021/09/10 00:36:21;;;;;;;2.40;1.67;;;17.00;98.00;;;;;;5112169;28;20451;-70
2021/09/10 00:38:49;;;;;;;3.00;1.90;;;16.80;98.00;;;;;;5112121;28;20493;-69
2021/09/10 00:41:16;;;;;;;2.40;1.87;;;16.80;98.00;;;;;;5111995;28;20873;-71
2021/09/10 00:43:43;;;;;;;1.80;1.60;;;16.70;98.00;;;;;;5112301;28;20458;-69
2021/09/10 00:46:11;;;;;;;1.90;1.40;;;16.70;98.00;;;;;;5111512;28;20536;-70
2021/09/10 00:48:40;;;;;;;1.80;1.50;;;16.70;98.00;;;;;;5112100;28;20500;-71
2021/09/10 00:51:07;;;;;;;2.43;1.83;;;16.60;98.00;;;;;;5112183;28;20490;-69
2021/09/10 00:53:36;;;;;;;2.37;2.13;;;16.60;98.00;;;;;;5112105;28;20519;-69
2021/09/10 00:56:04;;;;;;;3.50;2.37;;;16.60;98.00;;;;;;5112183;28;20475;-69
2021/09/10 00:58:31;;;;;;;1.93;1.50;;;16.50;98.00;;;;;;5094189;28;20960;-69
2021/09/10 01:00:58;;;;;;;2.37;1.90;;;16.50;98.00;;;;;;5112127;28;20515;-69
2021/09/10 01:03:25;;;;;;;1.77;1.77;;;16.50;98.00;;;;;;5111283;28;20513;-69
2021/09/10 01:05:52;;;;;;;1.63;1.50;;;16.50;98.00;;;;;;5111067;28;20510;-70
2021/09/10 01:08:21;;;;;;;3.50;1.93;;;16.60;98.00;;;;;;5111832;28;20459;-69
2021/09/10 01:10:56;;;;;;;3.93;2.70;;;16.70;98.00;;;;;;5112351;28;20475;-68
2021/09/10 01:13:25;;;;;;;3.00;1.70;;;16.50;98.00;;;;;;5112227;28;20454;-69
2021/09/10 01:15:53;;;;;;;2.00;1.53;;;16.40;98.00;;;;;;5112145;28;20443;-69
2021/09/10 01:18:20;;;;;;;1.63;1.30;;;16.40;98.00;;;;;;5111845;28;20538;-70
2021/09/10 01:20:48;;;;;;;2.90;1.73;;;16.30;98.00;;;;;;5111720;28;20490;-69
2021/09/10 01:23:16;;;;;;;1.73;1.50;;;16.20;98.00;;;;;;5111977;28;20953;-68
2021/09/10 01:25:44;;;;;;;1.70;1.60;;;16.10;98.00;;;;;;5111768;28;20533;-71
2021/09/10 01:28:11;;;;;;;1.70;1.60;;;16.20;98.00;;;;;;5111603;28;20493;-69
2021/09/10 01:30:39;;;;;;;2.93;2.07;;;16.30;98.00;;;;;;5111516;28;20466;-69
2021/09/10 01:33:08;;;;;;;3.33;1.83;;;16.40;98.00;;;;;;5111829;28;20455;-68
2021/09/10 01:35:35;;;;;;;2.23;1.53;;;16.40;98.00;;;;;;5114837;28;20519;-69
2021/09/10 01:38:03;;;;;;;2.37;1.97;;;16.40;98.00;;;;;;5115396;28;20447;-68
2021/09/10 01:40:31;;;;;;;2.13;1.87;;;16.30;98.00;;;;;;5114270;28;20647;-70
2021/09/10 01:43:00;;;;;;;1.60;1.60;;;16.30;98.00;;;;;;5115222;28;20447;-70
2021/09/10 01:45:28;;;;;;;1.90;1.63;;;16.30;98.00;;;;;;5115364;28;20479;-69
2021/09/10 01:47:55;;;;;;;2.50;1.60;;;16.30;98.00;;;;;;5115489;28;20495;-70
2021/09/10 01:50:23;;;;;;;2.33;1.50;;;16.30;98.00;;;;;;5115344;28;20486;-69
2021/09/10 01:52:50;;;;;;;2.80;1.83;;;16.40;98.00;;;;;;5115082;28;20466;-70
2021/09/10 01:55:17;;;;;;;2.03;1.77;;;16.40;98.00;;;;;;5115338;28;20458;-69
2021/09/10 01:57:46;;;;;;;1.83;1.60;;;16.30;98.00;;;;;;5115194;28;20512;-69
2021/09/10 02:00:16;;;;;;;1.70;1.60;;;16.20;98.00;;;;;;5113984;28;20506;-68
2021/09/10 02:02:44;;;;;;;2.30;1.80;;;16.20;98.00;;;;;;5115097;28;20996;-71
2021/09/10 02:05:12;;;;;;;1.40;1.30;;;16.10;98.00;;;;;;5114633;28;20483;-69
2021/09/10 02:07:39;;;;;;;2.37;1.70;;;16.10;98.00;;;;;;5115036;28;20544;-69
2021/09/10 02:10:09;;;;;;;1.50;1.30;;;16.10;98.00;;;;;;5115237;28;20536;-70
2021/09/10 02:12:36;;;;;;;2.57;1.73;;;16.00;98.00;;;;;;5113679;28;20497;-70
2021/09/10 02:15:05;;;;;;;1.47;1.40;;;16.10;98.00;;;;;;5115049;28;20574;-69
2021/09/10 02:17:34;;;;;;;2.37;1.80;;;16.20;98.00;;;;;;5114976;28;20497;-71
2021/09/10 02:20:01;;;;;;;1.90;1.80;;;16.20;98.00;;;;;;5113738;28;20479;-71
2021/09/10 02:22:28;;;;;;;1.83;1.57;;;16.20;98.00;;;;;;5113910;28;20895;-70
2021/09/10 02:24:55;;;;;;;1.30;1.20;;;16.20;98.00;;;;;;5115029;28;20482;-68
2021/09/10 02:27:23;;;;;;;1.73;1.40;;;16.20;98.00;;;;;;5114724;28;20544;-73
2021/09/10 02:29:50;;;;;;;2.00;1.57;;;16.20;98.00;;;;;;5113670;28;20459;-69
2021/09/10 02:32:17;;;;;;;2.67;1.60;;;16.30;98.00;;;;;;5114922;28;20490;-70
2021/09/10 02:34:45;;;;;;;1.40;1.40;;;16.30;98.00;;;;;;5114369;28;20450;-69
2021/09/10 02:37:12;;;;;;;2.50;1.70;;;16.40;98.00;;;;;;5114475;28;20479;-68
2021/09/10 02:39:39;;;;;;;4.23;1.60;;;16.30;98.00;;;;;;5114090;28;20459;-68
2021/09/10 02:42:07;;;;;;;2.27;1.70;;;16.20;98.00;;;;;;5114309;28;20482;-69
2021/09/10 02:44:34;;;;;;;1.80;1.60;;;16.10;98.00;;;;;;5114278;28;20451;-68
2021/09/10 02:47:04;;;;;;;1.93;1.70;;;16.00;98.00;;;;;;5113315;28;20559;-70
2021/09/10 02:49:31;;;;;;;1.90;1.63;;;16.10;98.00;;;;;;5114094;28;20530;-70
2021/09/10 02:52:00;;;;;;;2.67;1.67;;;16.00;98.00;;;;;;5114083;28;20566;-68
2021/09/10 02:54:27;;;;;;;2.60;2.07;;;15.90;98.00;;;;;;5113849;28;20487;-70
2021/09/10 02:56:54;;;;;;;1.93;1.63;;;16.00;98.00;;;;;;5113844;28;20455;-69
2021/09/10 02:59:21;;;;;;;1.57;1.53;;;16.10;98.00;;;;;;5113457;28;21041;-70
2021/09/10 03:01:48;;;;;;;1.83;1.60;;;16.20;98.00;;;;;;5114102;28;20502;-70
2021/09/10 03:04:15;;;;;;;1.70;1.60;;;16.30;98.00;;;;;;5113718;28;20515;-69
2021/09/10 03:06:42;;;;;;;2.23;1.53;;;16.40;98.00;;;;;;5112634;28;20526;-70
2021/09/10 03:09:12;;;;;;;2.27;1.73;;;16.30;98.00;;;;;;5112692;28;20516;-71
2021/09/10 03:11:39;;;;;;;1.83;1.63;;;16.40;98.00;;;;;;5113657;28;20454;-70
2021/09/10 03:14:06;;;;;;;2.80;2.10;;;16.20;98.00;;;;;;5113732;28;20519;-70
2021/09/10 03:16:33;;;;;;;1.77;1.67;;;16.10;98.00;;;;;;5113582;28;20513;-69
2021/09/10 03:19:00;;;;;;;4.30;2.00;;;16.00;98.00;;;;;;5112371;28;20512;-70
2021/09/10 03:21:27;;;;;;;3.50;1.97;;;16.00;98.00;;;;;;5113842;28;20470;-70
2021/09/10 03:23:55;;;;;;;1.90;1.70;;;16.10;98.00;;;;;;5113579;28;20513;-69
2021/09/10 03:26:24;;;;;;;2.43;1.70;;;16.10;98.00;;;;;;5113525;28;20512;-68
2021/09/10 03:28:51;;;;;;;2.53;1.90;;;16.20;98.00;;;;;;5113334;28;20520;-70
2021/09/10 03:31:19;;;;;;;2.43;1.60;;;16.30;98.00;;;;;;5112282;28;20443;-68
2021/09/10 03:33:46;;;;;;;1.80;1.70;;;16.30;98.00;;;;;;5113782;28;20504;-69
2021/09/10 03:36:13;;;;;;;1.60;1.53;;;16.10;98.00;;;;;;5113424;28;20487;-69
2021/09/10 03:38:40;;;;;;;2.57;1.63;;;16.00;98.00;;;;;;5112598;27;20553;-69
2021/09/10 03:41:08;;;;;;;2.80;1.90;;;15.90;98.00;;;;;;5111311;28;20487;-67
2021/09/10 03:43:37;;;;;;;2.10;1.80;;;15.80;98.00;;;;;;5112470;28;20487;-68
2021/09/10 03:46:07;;;;;;;1.77;1.73;;;15.80;98.00;;;;;;5112505;28;21388;-70
2021/09/10 03:48:35;;;;;;;2.07;1.90;;;15.80;98.00;;;;;;5112665;28;20491;-68
2021/09/10 03:51:02;;;;;;;1.73;1.40;;;15.90;98.00;;;;;;5113404;28;20493;-70
2021/09/10 03:53:29;;;;;;;2.10;1.70;;;15.80;98.00;;;;;;5113176;28;20841;-69
2021/09/10 03:55:56;;;;;;;2.37;2.07;;;15.60;98.00;;;;;;5112718;28;20450;-69
2021/09/10 03:58:23;;;;;;;2.47;1.90;;;15.50;98.00;;;;;;5111702;28;20555;-68
2021/09/10 04:00:52;;;;;;;2.63;1.80;;;15.50;98.00;;;;;;5112820;28;20907;-71
2021/09/10 04:03:19;;;;;;;3.00;1.90;;;15.50;98.00;;;;;;5112846;28;20482;-70
2021/09/10 04:05:47;;;;;;;1.83;1.67;;;15.40;98.00;;;;;;5094634;28;20465;-69
2021/09/10 04:08:15;;;;;;;1.60;1.17;;;15.30;98.00;;;;;;5112355;28;20582;-71
2021/09/10 04:10:43;;;;;;;1.90;1.63;;;15.30;98.00;;;;;;5112638;28;20594;-70
2021/09/10 04:13:10;;;;;;;2.27;1.57;;;15.40;98.00;;;;;;5112633;28;20500;-68
2021/09/10 04:15:38;;;;;;;2.33;1.57;;;15.40;98.00;;;;;;5112134;28;20954;-68
2021/09/10 04:18:06;;;;;;;2.67;1.67;;;15.40;98.00;;;;;;5112370;28;20702;-70
2021/09/10 04:20:34;;;;;;;1.83;1.50;;;15.30;98.00;;;;;;5112506;28;20462;-70
2021/09/10 04:23:02;;;;;;;3.20;1.63;;;15.40;98.00;;;;;;5111305;28;20494;-69
2021/09/10 04:25:29;;;;;;;2.73;1.70;;;15.50;98.00;;;;;;5112373;28;20479;-68
2021/09/10 04:27:56;;;;;;;2.30;1.80;;;15.50;98.00;;;;;;5112091;28;20493;-69
2021/09/10 04:30:24;;;;;;;1.70;1.60;;;15.50;98.00;;;;;;5112182;28;20566;-69
2021/09/10 04:32:51;;;;;;;1.30;1.30;;;15.50;98.00;;;;;;5112180;28;20459;-68
2021/09/10 04:35:19;;;;;;;2.70;1.97;;;15.50;98.00;;;;;;5112401;28;20487;-70
2021/09/10 04:37:46;;;;;;;3.40;2.20;;;15.60;98.00;;;;;;5112160;28;20515;-69
2021/09/10 04:40:14;;;;;;;2.20;1.77;;;15.60;98.00;;;;;;5112499;28;20565;-69
2021/09/10 04:42:41;;;;;;;1.83;1.70;;;15.80;98.00;;;;;;5112003;28;20516;-70
2021/09/10 04:45:09;;;;;;;4.07;2.33;;;15.80;98.00;;;;;;5111925;28;20455;-69
2021/09/10 04:47:37;;;;;;;2.73;1.77;;;15.80;98.00;;;;;;5094038;28;20475;-69
2021/09/10 04:50:06;;;;;;;2.20;1.80;;;15.80;98.00;;;;;;5112283;28;20454;-69
2021/09/10 04:52:34;;;;;;;2.10;1.60;;;15.80;98.00;;;;;;5112310;28;20463;-69
2021/09/10 04:55:01;;;;;;;2.63;2.20;;;15.80;98.00;;;;;;5112035;28;20493;-69
2021/09/10 04:57:29;;;;;;;3.20;2.23;;;15.60;98.00;;;;;;5112341;28;20873;-70
2021/09/10 04:59:57;;;;;;;1.70;1.40;;;15.50;98.00;;;;;;5112132;28;20538;-69
2021/09/10 05:02:25;;;;;;;3.83;1.80;;;15.50;98.00;;;;;;5110906;28;20459;-69
2021/09/10 05:04:52;;;;;;;1.93;1.60;;;15.50;98.00;;;;;;5112151;28;20792;-70
2021/09/10 05:07:19;;;;;;;3.30;1.87;;;15.40;98.00;;;;;;5112028;28;20521;-69
2021/09/10 05:09:48;;;;;;;3.10;1.90;;;15.50;98.00;;;;;;5114160;28;20454;-70
2021/09/10 05:12:16;;;;;;;2.27;1.77;;;15.60;98.00;;;;;;5116182;28;20487;-70
2021/09/10 05:14:43;;;;;;;2.47;2.10;;;15.50;98.00;;;;;;5116373;28;20443;-69
2021/09/10 05:17:11;;;;;;;2.60;1.63;;;15.70;98.00;;;;;;5116401;28;20502;-69
2021/09/10 05:19:38;;;;;;;2.10;1.77;;;15.50;98.00;;;;;;5116499;28;20883;-69
2021/09/10 05:22:05;;;;;;;3.77;1.97;;;15.40;98.00;;;;;;5115844;28;20487;-71
2021/09/10 05:24:32;;;;;;;1.60;1.50;;;15.30;98.00;;;;;;5115792;28;20451;-69
2021/09/10 05:27:00;;;;;;;3.27;1.73;;;15.30;98.00;;;;;;5115741;28;20558;-70
2021/09/10 05:29:27;;;;;;;1.90;1.57;;;15.20;98.00;;;;;;5115630;28;20570;-69
2021/09/10 05:31:54;;;;;;;2.73;1.90;;;15.40;98.00;;;;;;5115405;28;20497;-69
2021/09/10 05:34:23;;;;;;;2.30;1.60;;;15.30;98.00;;;;;;5115757;28;20482;-69
2021/09/10 05:36:50;;;;;;;1.87;1.83;;;15.20;98.00;;;;;;5114537;28;20469;-69
2021/09/10 05:39:18;;;;;;;1.63;1.60;;;15.40;98.00;;;;;;5115475;28;20516;-69
2021/09/10 05:41:45;;;;;;;2.83;1.70;;;15.50;98.00;;;;;;5115343;28;20510;-71
2021/09/10 05:44:15;;;;;;;2.17;1.83;;;15.50;98.00;;;;;;5115454;28;20546;-68
2021/09/10 05:46:42;;;;;;;2.53;1.90;;;15.60;98.00;;;;;;5115284;28;20454;-69
2021/09/10 05:49:10;;;;;;;1.93;1.60;;;15.50;98.00;;;;;;5115281;28;21020;-70
2021/09/10 05:51:37;;;;;;;1.90;1.57;;;15.50;98.00;;;;;;5115373;28;20443;-69
2021/09/10 05:54:05;;;;;;;1.90;1.47;;;15.40;98.00;;;;;;5115250;28;20480;-69
2021/09/10 05:56:32;;;;;;;1.57;1.40;;;15.50;98.00;;;;;;5114124;28;20477;-71
2021/09/10 05:58:59;;;;;;;1.50;1.30;;;15.50;98.00;;;;;;5114977;28;20531;-70
2021/09/10 06:01:27;;;;;;;2.23;2.00;;;15.50;98.00;;;;;;5113948;28;20511;-70
2021/09/10 06:03:54;;;;;;;1.40;1.33;;;15.50;98.00;;;;;;5114130;28;20514;-71
2021/09/10 06:06:21;;;;;;;1.80;1.60;;;15.50;98.00;;;;;;5115075;28;20509;-71
2021/09/10 06:08:48;;;;;;;2.50;1.87;;;15.50;98.00;;;;;;5115087;28;21011;-71
2021/09/10 06:11:15;;;;;;;3.17;1.97;;;15.50;98.00;;;;;;5114894;28;20458;-71
2021/09/10 06:13:42;;;;;;;1.93;1.60;;;15.60;98.00;;;;;;5114989;28;20550;-70
2021/09/10 06:16:09;;;;;;;2.90;2.10;;;15.60;98.00;;;;;;5114811;28;20524;-70
2021/09/10 06:18:38;;;;;;;1.80;1.63;;;15.70;98.00;;;;;;5114651;28;20500;-71
2021/09/10 06:21:06;;;;;;;2.70;2.00;;;15.80;98.00;;;;;;5112629;28;20583;-72
2021/09/10 06:23:33;;;;;;;3.27;1.83;;;15.90;98.00;;;;;;5114759;28;20462;-70
2021/09/10 06:26:00;;;;;;;2.17;1.90;;;16.10;98.00;;;;;;5114733;28;20457;-73
2021/09/10 06:28:27;;;;;;;2.57;1.97;;;16.10;98.00;;;;;;5114756;28;20490;-72
2021/09/10 06:30:54;;;;;;;4.50;2.20;;;16.20;98.00;;;;;;5114527;28;20550;-71
2021/09/10 06:33:22;;;;;;;2.33;2.17;;;16.20;98.00;;;;;;5114716;28;20778;-70
2021/09/10 06:35:51;;;;;;;1.93;1.63;;;16.30;98.00;;;;;;5114889;28;20944;-71
2021/09/10 06:38:17;;;;;;;2.27;1.93;;;16.50;98.00;;;;;;5114667;28;20482;-71
2021/09/10 06:40:44;;;;;;;2.07;1.70;;;16.60;98.00;;;;;;5114691;28;20498;-73
2021/09/10 06:43:12;;;;;;;2.10;1.93;;;16.70;98.00;;;;;;5114182;28;20536;-70
2021/09/10 06:45:39;;;;;;;2.43;2.03;;;16.90;98.00;;;;;;5113219;28;20878;-72
2021/09/10 06:48:07;;;;;;;2.10;1.60;;;17.00;98.00;;;;;;5114059;28;20512;-69
2021/09/10 06:50:34;;;;;;;1.77;1.63;;;17.00;98.00;;;;;;5113409;28;20850;-71
2021/09/10 06:53:02;;;;;;;1.40;1.40;;;17.00;98.00;;;;;;5112831;28;20475;-71
2021/09/10 06:55:29;;;;;;;2.17;1.83;;;17.00;98.00;;;;;;5114238;28;20933;-71
2021/09/10 06:57:56;;;;;;;3.27;1.93;;;17.10;98.00;;;;;;5113895;28;20475;-70
2021/09/10 07:00:23;;;;;;;2.10;1.97;;;17.20;98.00;;;;;;5113978;28;20451;-70
2021/09/10 07:02:50;;;;;;;2.60;2.07;;;17.30;98.00;;;;;;5114095;28;20490;-71
2021/09/10 07:05:17;;;;;;;2.70;2.13;;;17.40;98.00;;;;;;5114034;28;20487;-72
2021/09/10 07:07:44;;;;;;;3.43;2.10;;;17.50;98.00;;;;;;5113740;28;20505;-70
2021/09/10 07:10:13;;;;;;;2.93;1.93;;;17.60;98.00;;;;;;5113842;28;20498;-72
2021/09/10 07:12:40;;;;;;;2.70;1.93;;;17.80;98.00;;;;;;5111788;28;20524;-72
2021/09/10 07:15:08;;;;;;;1.60;1.40;;;18.10;98.00;;;;;;5092370;28;20496;-70
2021/09/10 07:17:35;;;;;;;1.80;1.70;;;18.10;98.00;;;;;;5099537;28;20487;-70
2021/09/10 07:20:02;;;;;;;3.00;2.13;;;18.20;98.00;;;;;;5100069;28;20463;-68
2021/09/10 07:22:29;;;;;;;1.83;1.50;;;18.20;98.00;;;;;;5091676;28;20464;-70
2021/09/10 07:24:56;;;;;;;2.03;1.87;;;18.30;98.00;;;;;;5096908;28;20487;-71
2021/09/10 07:27:25;;;;;;;2.10;1.73;;;18.30;98.00;;;;;;5108863;28;20455;-70
2021/09/10 07:29:52;;;;;;;1.90;1.67;;;18.40;98.00;;;;;;5108487;28;20526;-71
2021/09/10 07:32:19;;;;;;;1.73;1.70;;;18.60;98.00;;;;;;5092942;28;20498;-70
2021/09/10 07:34:46;;;;;;;2.87;1.87;;;18.70;98.00;;;;;;5099802;28;20548;-72
2021/09/10 07:37:15;;;;;;;2.23;2.00;;;18.90;98.00;;;;;;5074412;28;20449;-69
2021/09/10 07:39:41;;;;;;;2.03;1.83;;;19.10;98.00;;;;;;5094926;28;20467;-70
2021/09/10 07:42:08;;;;;;;1.80;1.70;;;19.30;98.00;;;;;;5094280;28;20493;-72
2021/09/10 07:44:37;;;;;;;2.40;1.70;;;19.40;98.00;;;;;;5096434;28;20490;-69
2021/09/10 07:47:04;;;;;;;2.60;2.10;;;19.60;98.00;;;;;;5107407;28;20451;-69
2021/09/10 07:49:31;;;;;;;3.07;2.00;;;19.50;98.00;;;;;;5095180;28;21678;-69
2021/09/10 07:51:58;;;;;;;2.17;1.80;;;19.60;98.00;;;;;;5101890;28;20517;-69
2021/09/10 07:54:25;;;;;;;2.60;1.80;;;19.60;98.00;;;;;;5099431;28;20456;-70
2021/09/10 07:56:52;;;;;;;2.20;1.90;;;19.60;98.00;;;;;;5099936;28;20487;-68
2021/09/10 07:59:19;;;;;;;2.87;2.20;;;19.70;98.00;;;;;;5100047;28;20646;-71
2021/09/10 08:01:47;;;;;;;2.50;2.20;;;19.90;98.00;;;;;;5099399;28;20482;-69
2021/09/10 08:04:14;;;;;;;6.60;1.73;;;20.10;98.00;;;;;;5099552;28;20864;-70
2021/09/10 08:06:41;;;;;;;2.77;2.10;;;20.20;98.00;;;;;;5104604;28;20483;-71
2021/09/10 08:09:08;;;;;;;5.57;1.83;;;20.20;98.00;;;;;;5103964;28;20571;-69
2021/09/10 08:11:35;;;;;;;8.87;3.13;;;20.20;98.00;;;;;;5106944;28;20459;-72
2021/09/10 08:14:07;;;;;;;2.30;2.20;;;20.30;98.00;;;;;;5093567;28;20521;-70
2021/09/10 08:16:34;;;;;;;1.93;1.80;;;20.30;98.00;;;;;;5098926;28;20531;-70
2021/09/10 08:19:03;;;;;;;4.50;2.00;;;20.50;98.00;;;;;;5099091;28;20460;-71
2021/09/10 08:21:30;;;;;;;2.63;1.80;;;20.70;98.00;;;;;;5104072;28;20511;-68
2021/09/10 08:23:57;;;;;;;3.37;2.30;;;20.80;98.00;;;;;;5102526;28;20475;-69
2021/09/10 08:26:24;;;;;;;2.30;2.13;;;20.90;98.00;;;;;;5099801;28;20451;-70
2021/09/10 08:28:51;;;;;;;2.70;2.20;;;21.10;98.00;;;;;;5094181;28;20579;-70
2021/09/10 08:31:18;;;;;;;4.13;2.00;;;21.20;98.00;;;;;;5089163;28;20479;-70
2021/09/10 08:33:45;;;;;;;2.00;1.80;;;21.20;98.00;;;;;;5094347;28;20551;-68
2021/09/10 08:36:14;;;;;;;2.33;2.20;;;21.20;98.00;;;;;;5106769;28;20455;-71
2021/09/10 08:38:41;;;;;;;1.97;1.80;;;21.30;98.00;;;;;;5103937;28;20548;-70
2021/09/10 08:41:13;;;;;;;2.63;2.00;;;21.40;98.00;;;;;;5106738;28;20471;-72
2021/09/10 08:43:47;;;;;;;2.70;2.13;;;21.50;98.00;;;;;;5098002;28;20457;-70
2021/09/10 08:46:14;;;;;;;3.93;2.00;;;21.80;98.00;;;;;;5093181;28;20465;-69
2021/09/10 08:48:45;;;;;;;3.00;2.30;;;21.90;98.00;;;;;;5069911;28;20524;-69
2021/09/10 08:51:15;;;;;;;2.23;2.03;;;22.20;98.00;;;;;;5094002;28;20456;-71
2021/09/10 08:53:42;;;;;;;2.00;1.60;;;22.40;98.00;;;;;;5103896;28;20590;-72
2021/09/10 08:56:10;;;;;;;2.30;1.77;;;22.70;98.00;;;;;;5098110;28;20580;-70
2021/09/10 08:58:37;;;;;;;3.40;2.00;;;22.90;98.00;;;;;;5101595;28;20610;-68
2021/09/10 09:01:04;;;;;;;3.60;2.60;;;23.10;98.00;;;;;;5089183;28;20498;-69
2021/09/10 09:03:32;;;;;;;3.30;2.30;;;23.40;98.00;;;;;;5102019;28;20482;-71
2021/09/10 09:06:00;;;;;;;3.57;2.53;;;23.50;98.00;;;;;;5097906;28;20451;-69
2021/09/10 09:08:28;;;;;;;3.33;2.50;;;23.50;98.00;;;;;;5107282;28;20557;-70
2021/09/10 09:11:01;;;;;;;6.87;2.17;;;23.60;98.00;;;;;;5094197;28;20529;-70
2021/09/10 09:13:30;;;;;;;3.10;2.40;;;23.80;98.00;;;;;;5098788;28;20503;-68
2021/09/10 09:16:23;;;;;;;6.10;2.67;;;23.90;98.00;;;;;;5098008;28;20484;-70
2021/09/10 09:18:53;;;;;;;3.10;2.27;;;24.00;96.70;;;;;;5089780;28;20796;-70
2021/09/10 09:21:25;;;;;;;3.33;2.20;;;24.10;96.10;;;;;;5098601;28;20464;-71
2021/09/10 09:23:55;;;;;;;3.50;2.17;;;24.00;96.90;;;;;;5086029;28;20459;-72
2021/09/10 09:26:25;;;;;;;1.70;1.43;;;24.10;97.00;;;;;;5088921;28;20463;-73
2021/09/10 09:29:04;;;;;;;4.83;2.20;;;24.10;98.00;;;;;;5095909;28;20483;-71
2021/09/10 09:31:32;;;;;;;2.07;1.77;;;24.10;95.80;;;;;;5097079;28;20482;-72
2021/09/10 09:33:59;;;;;;;2.23;1.90;;;24.10;96.10;;;;;;5098896;28;20869;-73
2021/09/10 09:36:26;;;;;;;4.63;2.63;;;24.30;97.70;;;;;;5096099;28;20456;-72
2021/09/10 09:38:55;;;;;;;4.33;2.10;;;24.40;95.30;;;;;;5091249;28;20529;-71
2021/09/10 09:41:24;;;;;;;2.90;2.30;;;24.50;94.30;;;;;;5096184;28;20456;-72
2021/09/10 09:43:53;;;;;;;2.17;1.80;;;24.70;93.70;;;;;;5097904;28;20467;-72
2021/09/10 09:46:22;;;;;;;2.73;2.20;;;24.90;94.00;;;;;;5098367;28;20875;-71
2021/09/10 09:48:52;;;;;;;3.83;2.20;;;25.00;94.50;;;;;;5098540;28;20553;-70
2021/09/10 09:51:21;;;;;;;3.70;2.47;;;24.90;93.00;;;;;;5097850;28;20496;-72
2021/09/10 09:53:49;;;;;;;4.83;2.10;;;24.90;94.60;;;;;;5089336;28;20499;-70
2021/09/10 09:56:17;;;;;;;5.40;2.53;;;25.00;93.90;;;;;;5099230;28;20529;-71
2021/09/10 09:58:46;;;;;;;2.50;2.13;;;25.20;93.20;;;;;;5093299;28;20460;-71
2021/09/10 10:01:13;;;;;;;2.87;2.10;;;25.20;93.80;;;;;;5092935;28;20455;-71
2021/09/10 10:03:41;;;;;;;3.43;1.80;;;25.40;92.70;;;;;;5094439;28;20830;-74
2021/09/10 10:06:14;;;;;;;2.80;2.03;;;25.60;92.50;;;;;;5099031;28;20474;-72
2021/09/10 10:08:49;;;;;;;2.63;2.10;;;25.70;92.10;;;;;;5091737;28;20458;-72
2021/09/10 10:11:21;;;;;;;4.13;2.60;;;25.80;93.80;;;;;;5105435;28;20523;-70
2021/09/10 10:13:55;;;;;;;2.97;2.33;;;25.90;92.10;;;;;;5114103;28;20486;-71
2021/09/10 10:16:39;;;;;;;2.70;2.50;;;25.90;91.20;;;;;;5114196;28;20451;-70
2021/09/10 10:19:08;;;;;;;3.90;2.10;;;26.00;92.20;;;;;;5113869;28;20500;-70
2021/09/10 10:21:54;;;;;;;2.43;2.10;;;26.00;92.00;;;;;;5113431;28;20521;-70
2021/09/10 10:24:40;;;;;;;3.13;2.60;;;26.30;91.00;;;;;;5114046;28;20458;-71
2021/09/10 10:27:45;;;;;;;3.57;2.63;;;26.60;90.50;;;;;;5114160;28;20454;-69
2021/09/10 10:30:46;;;;;;;4.17;2.53;;;26.80;89.00;;;;;;5050682;28;20494;-71
2021/09/10 10:33:28;;;;;;;3.43;2.43;;;26.70;89.50;;;;;;5114032;28;20941;-71
2021/09/10 10:35:56;;;;;;;3.70;2.43;;;26.70;88.90;;;;;;5113873;28;20454;-69
2021/09/10 10:38:23;;;;;;;4.20;2.40;;;26.70;89.50;;;;;;5114082;28;20476;-70
2021/09/10 10:40:50;;;;;;;3.50;2.00;;;26.70;89.70;;;;;;5113925;28;20451;-71
2021/09/10 10:43:29;;;;;;;3.40;2.50;;;26.70;88.30;;;;;;5113728;28;20458;-72
2021/09/10 10:46:07;;;;;;;2.77;2.17;;;26.70;88.70;;;;;;5113557;28;20455;-69
2021/09/10 10:48:51;;;;;;;7.23;3.30;;;26.80;90.00;;;;;;5113563;28;20446;-70
2021/09/10 10:51:44;;;;;;;4.83;2.57;;;27.00;89.70;;;;;;5113368;28;20481;-71
2021/09/10 10:54:15;;;;;;;3.50;2.40;;;27.40;88.70;;;;;;5113457;28;20487;-71
2021/09/10 10:56:49;;;;;;;3.90;3.10;;;27.70;87.00;;;;;;5113491;28;20543;-71
2021/09/10 10:59:39;;;;;;;3.53;2.40;;;27.90;87.10;;;;;;5113351;28;20459;-70
2021/09/10 11:02:28;;;;;;;3.80;2.07;;;27.70;85.30;;;;;;5107636;28;20439;-70
2021/09/10 11:05:01;;;;;;;3.63;2.40;;;27.50;86.70;;;;;;5113205;28;20448;-71
2021/09/10 11:07:29;;;;;;;2.70;2.27;;;27.60;87.00;;;;;;5112617;28;20467;-72
2021/09/10 11:10:00;;;;;;;2.50;2.10;;;27.70;87.00;;;;;;5112984;28;20540;-70
2021/09/10 11:12:28;;;;;;;3.17;2.23;;;27.80;83.00;;;;;;5113056;28;20885;-71
2021/09/10 11:14:57;;;;;;;2.10;1.80;;;28.00;83.70;;;;;;5113046;28;20467;-70
2021/09/10 11:17:27;;;;;;;4.20;2.60;;;28.00;82.20;;;;;;5113009;28;20455;-72
2021/09/10 11:19:56;;;;;;;3.50;2.53;;;28.20;83.20;;;;;;5112808;28;20452;-71
2021/09/10 11:22:24;;;;;;;4.07;2.50;;;28.20;83.60;;;;;;5113075;28;20462;-71
2021/09/10 11:25:04;;;;;;;6.60;3.03;;;28.00;83.50;;;;;;5112694;28;20512;-71
2021/09/10 11:27:32;;;;;;;3.70;2.50;;;27.90;83.30;;;;;;5112841;28;20450;-72
2021/09/10 11:30:09;;;;;;;2.73;2.00;;;27.80;84.40;;;;;;5112417;28;20526;-71
2021/09/10 11:32:36;;;;;;;3.87;2.40;;;28.00;84.10;;;;;;5112536;28;20498;-72
2021/09/10 11:35:18;;;;;;;2.57;2.40;;;28.20;85.00;;;;;;5112702;28;20538;-71
2021/09/10 11:37:53;;;;;;;5.87;2.50;;;28.20;84.40;;;;;;5111183;28;20559;-71
2021/09/10 11:40:33;;;;;;;2.50;2.20;;;28.40;83.00;;;;;;5112467;28;20489;-71
2021/09/10 11:43:05;;;;;;;4.03;2.87;;;28.60;83.50;;;;;;5112370;28;20463;-72
2021/09/10 11:45:36;;;;;;;5.00;2.80;;;28.70;81.80;;;;;;5112517;28;20459;-73
2021/09/10 11:48:05;;;;;;;3.10;2.40;;;28.40;81.40;;;;;;5112474;28;20495;-72
2021/09/10 11:50:51;;;;;;;3.47;2.27;;;28.30;83.20;;;;;;5112429;28;20909;-71
2021/09/10 11:53:24;;;;;;;3.30;2.23;;;28.30;83.00;;;;;;5112418;28;20455;-70
2021/09/10 11:55:53;;;;;;;3.60;2.33;;;28.20;82.90;;;;;;5112565;28;20870;-72
2021/09/10 11:58:20;;;;;;;3.00;2.30;;;28.00;83.70;;;;;;5112841;28;20945;-70
2021/09/10 12:00:48;;;;;;;4.90;2.37;;;27.90;84.90;;;;;;5112528;28;20455;-72
2021/09/10 12:03:15;;;;;;;4.07;2.83;;;27.90;83.50;;;;;;5112387;28;20490;-72
2021/09/10 12:05:42;;;;;;;2.97;2.20;;;27.60;84.30;;;;;;5112196;28;20451;-71
2021/09/10 12:08:13;;;;;;;3.80;2.50;;;27.50;85.00;;;;;;5112065;28;20479;-71
2021/09/10 12:10:41;;;;;;;3.93;2.27;;;27.20;85.30;;;;;;5111848;28;20991;-72
2021/09/10 12:13:12;;;;;;;4.63;2.60;;;27.10;84.80;;;;;;5112321;28;20453;-70
2021/09/10 12:15:40;;;;;;;3.47;2.47;;;26.90;85.80;;;;;;5110104;28;20487;-73
2021/09/10 12:18:14;;;;;;;3.03;2.10;;;26.80;87.10;;;;;;5111513;28;20508;-72
2021/09/10 12:20:41;;;;;;;3.77;2.50;;;26.70;87.10;;;;;;5111706;28;20479;-73
2021/09/10 12:23:11;;;;;;;4.03;2.33;;;26.50;86.80;;;;;;5111737;28;20455;-71
2021/09/10 12:25:44;;;;;;;5.37;2.63;;;26.40;87.60;;;;;;5110159;28;20459;-72
2021/09/10 12:28:25;;;;;;;3.07;2.40;;;26.40;88.90;;;;;;5110707;28;20607;-72
2021/09/10 12:30:59;;;;;;;4.10;2.60;;;26.50;89.50;;;;;;5111483;28;20510;-72
2021/09/10 12:33:30;;;;;;;3.73;2.40;;;26.40;88.80;;;;;;5111658;28;20455;-71
2021/09/10 12:35:59;;;;;;;2.47;2.23;;;26.30;89.50;;;;;;5111752;28;20864;-71
2021/09/10 12:38:31;;;;;;;3.10;2.37;;;26.20;88.90;;;;;;5111778;28;20453;-71
2021/09/10 12:40:58;;;;;;;4.90;2.47;;;25.80;88.70;;;;;;5111482;28;20479;-72
2021/09/10 12:43:25;;;;;;;3.53;2.27;;;25.70;89.30;;;;;;5111512;28;20479;-71
2021/09/10 12:45:55;;;;;;;2.27;2.13;;;25.60;91.10;;;;;;5111449;28;20998;-71
2021/09/10 12:48:22;;;;;;;3.63;2.70;;;25.60;89.50;;;;;;5111331;28;20447;-70
2021/09/10 12:50:50;;;;;;;3.73;2.37;;;25.70;89.70;;;;;;5111253;28;20921;-72
2021/09/10 12:53:18;;;;;;;4.30;2.60;;;25.90;88.90;;;;;;5111475;28;20497;-71
2021/09/10 12:55:45;;;;;;;2.67;2.30;;;26.10;89.50;;;;;;5111254;28;20515;-73
2021/09/10 12:58:13;;;;;;;3.50;2.70;;;26.20;89.50;;;;;;5111279;28;20944;-72